Time;durP1;ratioP1;P1;durP2;ratioP2;P2;SDS_P1;SDS_P2;PMS_P1;PMS_P2;Temp;Humidity;BMP_temperature;BMP_pressure;BME280_temperature;BME280_humidity;BME280_pressure;Samples;Min_cycle;Max_cycle;Signal;HPM_P1;HPM_P2
2021/12/12 00:00:09;;;;;;;21.25;14.35;;;8.30;97.20;;;;;;5095591;28;20496;-56
2021/12/12 00:05:20;;;;;;;20.17;12.45;;;8.30;96.60;;;;;;5075743;28;20028;-57
2021/12/12 00:07:46;;;;;;;18.23;13.10;;;8.30;96.60;;;;;;5075292;28;20399;-59
2021/12/12 00:10:17;;;;;;;23.33;14.65;;;8.30;96.20;;;;;;5093790;28;20043;-55
2021/12/12 00:12:47;;;;;;;22.50;15.80;;;8.20;96.00;;;;;;5095443;28;20020;-58
2021/12/12 00:15:16;;;;;;;23.27;14.50;;;8.20;96.00;;;;;;5094051;28;20036;-58
2021/12/12 00:17:42;;;;;;;22.52;15.63;;;8.10;95.90;;;;;;5078159;28;20024;-56
2021/12/12 00:20:11;;;;;;;24.30;14.75;;;8.00;96.10;;;;;;5074869;28;20041;-58
2021/12/12 00:22:37;;;;;;;23.63;13.93;;;8.00;96.20;;;;;;5074746;28;20048;-57
2021/12/12 00:25:05;;;;;;;26.10;15.00;;;8.00;96.30;;;;;;5075000;28;20103;-57
2021/12/12 00:27:30;;;;;;;25.95;15.02;;;7.90;96.30;;;;;;5075044;28;20032;-58
2021/12/12 00:30:03;;;;;;;23.23;14.88;;;7.90;96.40;;;;;;5074797;28;20369;-57
2021/12/12 00:32:30;;;;;;;23.23;15.35;;;7.90;96.30;;;;;;5074897;28;20025;-57
2021/12/12 00:35:03;;;;;;;21.55;15.82;;;7.80;96.10;;;;;;5074668;28;20383;-58
2021/12/12 00:37:29;;;;;;;24.60;16.85;;;7.80;96.20;;;;;;5075020;28;20032;-58
2021/12/12 00:40:00;;;;;;;26.38;16.58;;;7.70;96.20;;;;;;5074610;28;20023;-59
2021/12/12 00:42:31;;;;;;;25.27;14.98;;;7.60;96.30;;;;;;5074696;28;20017;-57
2021/12/12 00:45:00;;;;;;;28.35;17.40;;;7.60;96.60;;;;;;5086904;28;20028;-54
2021/12/12 00:47:26;;;;;;;23.20;14.95;;;7.60;96.70;;;;;;5094991;28;20047;-56
2021/12/12 00:49:53;;;;;;;25.25;16.70;;;7.50;96.60;;;;;;5094590;28;20540;-57
2021/12/12 00:52:20;;;;;;;26.08;16.75;;;7.50;96.70;;;;;;5083558;28;20112;-54
2021/12/12 00:54:48;;;;;;;25.65;16.95;;;7.50;96.60;;;;;;5074293;28;20029;-58
2021/12/12 00:57:17;;;;;;;23.40;15.80;;;7.40;96.70;;;;;;5074154;28;20028;-57
2021/12/12 00:59:45;;;;;;;26.90;16.92;;;7.40;96.70;;;;;;5081761;28;20027;-56
2021/12/12 01:02:16;;;;;;;27.65;18.00;;;7.40;96.80;;;;;;5087734;28;20036;-56
2021/12/12 01:04:43;;;;;;;;;;;7.30;96.70;;;;;;5074840;28;20392;-58
2021/12/12 01:07:13;;;;;;;24.08;14.68;;;7.30;96.80;;;;;;5074194;28;19930;-57
2021/12/12 01:09:46;;;;;;;28.15;15.98;;;7.30;96.50;;;;;;5090115;28;20467;-59
2021/12/12 01:12:25;;;;;;;25.73;16.73;;;7.20;96.60;;;;;;5094238;28;20059;-56
2021/12/12 01:14:57;;;;;;;25.65;17.00;;;7.20;96.80;;;;;;5093834;28;20020;-57
2021/12/12 01:17:37;;;;;;;25.83;16.80;;;7.20;96.90;;;;;;5073905;28;20024;-58
2021/12/12 01:20:42;;;;;;;22.80;16.00;;;7.20;96.90;;;;;;5073795;28;20024;-59
2021/12/12 01:23:20;;;;;;;21.85;14.77;;;7.20;96.90;;;;;;5061420;28;20040;-59
2021/12/12 01:25:48;;;;;;;25.10;16.48;;;7.20;96.90;;;;;;5073706;28;20025;-57
2021/12/12 01:28:17;;;;;;;22.27;14.65;;;7.30;96.80;;;;;;5073965;28;20028;-57
2021/12/12 01:30:43;;;;;;;23.52;15.50;;;7.30;97.00;;;;;;5073683;28;20473;-59
2021/12/12 01:33:10;;;;;;;26.13;16.52;;;7.30;97.00;;;;;;5073622;28;20476;-59
2021/12/12 01:35:40;;;;;;;26.80;18.05;;;7.30;97.20;;;;;;5073535;28;20071;-58
2021/12/12 01:40:57;;;;;;;22.42;14.82;;;7.40;97.00;;;;;;5073681;28;20027;-59
2021/12/12 01:43:37;;;;;;;23.88;15.20;;;7.40;96.80;;;;;;5081143;28;20024;-59
2021/12/12 01:46:11;;;;;;;20.20;14.15;;;7.50;96.50;;;;;;5092597;28;20024;-57
2021/12/12 01:48:42;;;;;;;20.20;14.02;;;7.40;96.40;;;;;;5093026;28;20532;-58
2021/12/12 01:51:12;;;;;;;18.20;12.70;;;7.40;96.20;;;;;;5090156;28;20027;-59
2021/12/12 01:53:40;;;;;;;19.23;12.80;;;7.40;96.20;;;;;;5073294;28;20403;-58
2021/12/12 01:56:13;;;;;;;21.30;13.85;;;7.40;96.30;;;;;;5074441;28;20376;-59
2021/12/12 01:58:41;;;;;;;20.35;13.20;;;7.30;96.20;;;;;;5073178;28;20487;-59
2021/12/12 02:01:16;;;;;;;24.95;15.23;;;7.30;96.20;;;;;;5073497;28;20024;-58
2021/12/12 02:03:49;;;;;;;22.77;13.20;;;7.20;96.40;;;;;;5073182;28;20029;-58
2021/12/12 02:06:18;;;;;;;19.77;13.57;;;7.20;96.60;;;;;;5090860;28;20051;-57
2021/12/12 02:08:46;;;;;;;20.00;13.68;;;7.20;96.50;;;;;;5093319;28;20082;-58
2021/12/12 02:11:17;;;;;;;20.50;14.07;;;7.20;96.50;;;;;;5093177;28;20499;-59
2021/12/12 02:13:45;;;;;;;;;;;7.10;96.50;;;;;;5093028;28;20104;-56
2021/12/12 02:16:12;;;;;;;19.00;11.93;;;7.10;96.40;;;;;;5092165;28;19953;-58
2021/12/12 02:18:45;;;;;;;19.73;12.20;;;7.10;97.00;;;;;;5093258;28;20024;-57
2021/12/12 02:21:34;;;;;;;20.67;12.20;;;7.20;96.80;;;;;;5092606;28;20560;-58
2021/12/12 02:37:34;;;;;;;18.50;12.45;;;7.20;96.20;;;;;;5072859;28;20035;-58
2021/12/12 02:40:01;;;;;;;22.00;14.75;;;7.10;96.20;;;;;;5072687;28;20029;-56
2021/12/12 02:42:26;;;;;;;18.13;12.77;;;7.10;96.40;;;;;;5072653;28;20028;-57
2021/12/12 02:44:57;;;;;;;19.20;12.40;;;7.10;96.60;;;;;;5092165;28;20495;-58
2021/12/12 02:47:33;;;;;;;19.17;12.70;;;7.10;96.30;;;;;;5093180;28;20515;-55
2021/12/12 02:50:11;;;;;;;22.15;14.82;;;7.10;96.20;;;;;;5093124;28;20437;-55
2021/12/12 02:52:42;;;;;;;18.27;12.20;;;7.00;96.20;;;;;;5076753;28;20071;-57
2021/12/12 02:55:16;;;;;;;19.13;13.90;;;7.00;96.20;;;;;;5085647;28;20032;-56
2021/12/12 02:57:42;;;;;;;19.50;12.98;;;6.90;96.20;;;;;;5096387;28;20028;-54
2021/12/12 03:00:15;;;;;;;20.15;12.75;;;6.80;96.40;;;;;;5097112;28;20478;-57
2021/12/12 03:02:45;;;;;;;20.15;13.25;;;6.80;96.30;;;;;;5097050;28;20403;-57
2021/12/12 03:05:13;;;;;;;19.00;13.23;;;6.80;96.40;;;;;;5097076;28;20483;-55
2021/12/12 03:07:40;;;;;;;18.98;12.43;;;6.70;96.40;;;;;;5096981;28;20039;-55
2021/12/12 03:10:09;;;;;;;18.30;11.80;;;6.70;96.50;;;;;;5091303;28;20028;-57
2021/12/12 03:12:36;;;;;;;20.30;13.32;;;6.70;96.50;;;;;;5095713;28;20028;-56
2021/12/12 03:15:10;;;;;;;19.48;13.18;;;6.70;96.30;;;;;;5096495;28;20028;-57
2021/12/12 03:17:37;;;;;;;18.50;11.45;;;6.70;96.20;;;;;;5096462;28;20033;-55
2021/12/12 03:20:23;;;;;;;14.82;10.93;;;6.60;96.60;;;;;;5096381;28;20031;-59
2021/12/12 03:22:50;;;;;;;19.42;11.90;;;6.60;96.60;;;;;;5095402;28;20068;-58
2021/12/12 03:25:15;;;;;;;17.52;12.70;;;6.70;96.90;;;;;;5096286;28;20024;-59
2021/12/12 03:27:41;;;;;;;18.58;12.77;;;6.70;96.70;;;;;;5096323;28;20379;-58
2021/12/12 03:30:07;;;;;;;18.25;11.05;;;6.80;96.80;;;;;;5096465;28;20035;-57
2021/12/12 03:32:33;;;;;;;17.98;11.20;;;6.80;96.70;;;;;;5096165;28;20032;-55
2021/12/12 03:35:00;;;;;;;16.00;10.75;;;6.90;96.60;;;;;;5096127;28;20073;-56
2021/12/12 03:37:28;;;;;;;14.27;10.45;;;6.90;96.60;;;;;;5096361;28;20088;-56
2021/12/12 03:39:56;;;;;;;18.05;12.10;;;6.90;96.50;;;;;;5095286;28;20027;-54
2021/12/12 03:42:25;;;;;;;20.98;12.43;;;7.00;96.40;;;;;;5092287;28;20380;-54
2021/12/12 03:44:53;;;;;;;18.20;11.52;;;7.00;96.10;;;;;;5095938;28;20024;-55
2021/12/12 03:47:30;;;;;;;14.57;10.70;;;7.00;96.20;;;;;;5095925;28;20472;-58
2021/12/12 03:49:58;;;;;;;15.98;10.15;;;7.10;96.20;;;;;;5095921;28;20076;-55
2021/12/12 03:52:24;;;;;;;14.52;10.35;;;7.10;95.90;;;;;;5090841;28;20032;-59
2021/12/12 03:54:51;;;;;;;16.15;10.85;;;7.10;95.70;;;;;;5095190;28;20039;-57
2021/12/12 03:57:19;;;;;;;17.65;10.32;;;7.10;95.50;;;;;;5074213;28;20078;-59
2021/12/12 03:59:46;;;;;;;14.93;10.77;;;7.00;95.50;;;;;;5075505;28;20028;-58
2021/12/12 04:02:12;;;;;;;15.15;10.57;;;6.90;95.40;;;;;;5075505;28;20484;-56
2021/12/12 04:04:42;;;;;;;15.00;10.43;;;6.90;95.30;;;;;;5075696;28;20030;-55
2021/12/12 04:07:12;;;;;;;14.77;10.23;;;6.80;95.30;;;;;;5075010;28;20112;-59
2021/12/12 04:09:38;;;;;;;16.83;10.65;;;6.70;95.50;;;;;;5075060;28;20070;-57
2021/12/12 04:12:08;;;;;;;15.27;10.68;;;6.60;95.50;;;;;;5075560;28;20075;-58
2021/12/12 04:14:33;;;;;;;13.65;10.10;;;6.60;95.70;;;;;;5094749;28;20038;-58
2021/12/12 04:17:04;;;;;;;18.85;9.40;;;6.50;95.90;;;;;;5089143;28;20024;-57
2021/12/12 04:19:30;;;;;;;14.35;9.00;;;6.40;95.90;;;;;;5095482;28;20028;-56
2021/12/12 04:21:56;;;;;;;16.25;10.02;;;6.40;96.20;;;;;;5095032;28;20039;-58
2021/12/12 04:24:28;;;;;;;11.90;8.43;;;6.30;96.30;;;;;;5095226;28;20035;-57
2021/12/12 04:26:55;;;;;;;14.07;8.98;;;6.30;96.30;;;;;;5095134;28;20032;-57
2021/12/12 04:29:32;;;;;;;12.07;8.48;;;6.30;96.20;;;;;;5080939;28;20104;-56
2021/12/12 04:32:07;;;;;;;11.05;8.30;;;6.30;96.20;;;;;;5075057;28;20510;-54
2021/12/12 04:34:36;;;;;;;14.00;8.38;;;6.20;96.30;;;;;;5074825;28;20039;-54
2021/12/12 04:37:04;;;;;;;11.25;7.88;;;6.20;96.30;;;;;;5074657;28;20044;-55
2021/12/12 04:39:37;;;;;;;12.10;7.60;;;6.20;96.30;;;;;;5074704;28;20025;-57
2021/12/12 04:42:15;;;;;;;10.52;7.45;;;6.10;96.10;;;;;;5075016;28;20168;-59
2021/12/12 04:44:46;;;;;;;13.90;8.57;;;6.10;96.10;;;;;;5080214;28;20025;-58
2021/12/12 04:50:15;;;;;;;10.45;7.25;;;6.00;96.20;;;;;;5074441;28;20040;-58
2021/12/12 04:52:45;;;;;;;9.80;7.38;;;6.00;96.50;;;;;;5074524;28;20024;-58
2021/12/12 04:55:34;;;;;;;10.15;6.93;;;6.00;96.50;;;;;;5074426;28;20503;-57
2021/12/12 04:58:23;;;;;;;9.75;7.13;;;6.00;96.30;;;;;;5084848;28;20027;-55
2021/12/12 05:00:59;;;;;;;10.77;7.18;;;6.00;96.30;;;;;;5084960;28;20025;-56
2021/12/12 05:03:40;;;;;;;8.80;6.80;;;5.90;96.30;;;;;;5074389;28;20476;-58
2021/12/12 05:06:16;;;;;;;11.30;8.13;;;5.90;96.30;;;;;;5074196;28;20021;-59
2021/12/12 05:08:52;;;;;;;9.80;7.55;;;5.90;96.50;;;;;;5074134;28;20063;-58
2021/12/12 05:11:34;;;;;;;9.40;6.82;;;5.90;96.30;;;;;;5078234;28;20029;-57
2021/12/12 05:14:06;;;;;;;8.40;6.50;;;5.80;96.40;;;;;;5090466;28;20028;-54
2021/12/12 05:16:37;;;;;;;8.38;6.75;;;5.80;96.40;;;;;;5086730;28;20032;-56
2021/12/12 05:19:10;;;;;;;15.45;9.30;;;5.80;96.50;;;;;;5073825;28;20444;-57
2021/12/12 05:21:40;;;;;;;12.38;8.63;;;5.70;96.50;;;;;;5073810;28;20037;-53
2021/12/12 05:24:09;;;;;;;14.48;9.00;;;5.70;96.50;;;;;;5073698;28;20029;-57
2021/12/12 05:26:51;;;;;;;12.27;8.63;;;5.70;96.60;;;;;;5073743;28;20473;-58
2021/12/12 05:29:23;;;;;;;13.80;9.15;;;5.60;96.60;;;;;;5073707;28;20111;-58
2021/12/12 05:31:51;;;;;;;13.35;9.32;;;5.60;96.70;;;;;;5073595;28;20024;-59
2021/12/12 05:34:19;;;;;;;32.63;18.38;;;5.50;96.90;;;;;;5073513;28;20056;-58
2021/12/12 05:36:47;;;;;;;27.25;18.27;;;5.50;97.00;;;;;;5073636;28;20524;-58
2021/12/12 05:39:15;;;;;;;28.13;17.25;;;5.50;97.10;;;;;;5073698;28;20484;-58
2021/12/12 05:41:41;;;;;;;26.45;15.88;;;5.50;97.00;;;;;;5073460;28;20024;-56
2021/12/12 05:44:07;;;;;;;27.55;15.77;;;5.50;96.90;;;;;;5074269;28;20423;-54
2021/12/12 05:46:33;;;;;;;25.92;13.25;;;5.40;96.90;;;;;;5073370;28;20025;-57
2021/12/12 05:49:04;;;;;;;17.27;11.85;;;5.40;96.90;;;;;;5073311;28;20028;-58
2021/12/12 05:51:31;;;;;;;22.73;12.55;;;5.40;97.00;;;;;;5081980;28;20032;-56
2021/12/12 05:53:57;;;;;;;24.52;13.60;;;5.40;97.20;;;;;;5075971;28;20055;-58
2021/12/12 05:56:24;;;;;;;18.92;11.68;;;5.40;97.10;;;;;;5073543;28;20024;-55
2021/12/12 05:58:52;;;;;;;19.55;12.20;;;5.40;97.10;;;;;;5073209;28;20154;-56
2021/12/12 06:01:18;;;;;;;19.55;11.43;;;5.30;96.90;;;;;;5073227;28;20058;-58
2021/12/12 06:03:47;;;;;;;23.33;12.05;;;5.20;97.00;;;;;;5073016;28;20525;-56
2021/12/12 06:06:17;;;;;;;18.65;10.30;;;5.20;97.20;;;;;;5073317;28;20032;-54
2021/12/12 06:08:45;;;;;;;17.83;10.48;;;5.20;97.30;;;;;;5077309;28;20425;-54
2021/12/12 06:11:12;;;;;;;14.90;9.15;;;5.10;97.40;;;;;;5092766;28;20031;-57
2021/12/12 06:13:39;;;;;;;15.32;9.77;;;5.10;97.40;;;;;;5093215;28;20384;-58
2021/12/12 06:16:06;;;;;;;15.93;10.70;;;5.10;97.30;;;;;;5093527;28;20031;-56
2021/12/12 06:18:33;;;;;;;16.52;10.48;;;5.10;97.20;;;;;;5093125;28;20039;-54
2021/12/12 06:21:00;;;;;;;19.63;10.80;;;5.00;97.20;;;;;;5092940;28;20012;-58
2021/12/12 06:23:27;;;;;;;18.02;10.43;;;5.00;97.40;;;;;;5073357;28;20487;-57
2021/12/12 06:25:53;;;;;;;23.23;10.23;;;5.00;97.50;;;;;;5072985;28;20024;-58
2021/12/12 06:28:29;;;;;;;18.98;11.68;;;4.90;97.50;;;;;;5072765;28;20054;-55
2021/12/12 06:30:56;;;;;;;18.67;11.27;;;4.90;97.60;;;;;;5072314;28;20032;-54
2021/12/12 06:33:22;;;;;;;22.10;12.43;;;4.80;97.80;;;;;;5072729;28;20028;-58
2021/12/12 06:35:49;;;;;;;18.98;10.00;;;4.80;98.20;;;;;;5073074;28;20024;-58
2021/12/12 06:38:17;;;;;;;21.27;10.55;;;4.70;97.90;;;;;;5072616;28;20039;-57
2021/12/12 06:40:43;;;;;;;17.33;9.50;;;4.70;98.10;;;;;;5072666;28;20103;-58
2021/12/12 06:43:12;;;;;;;20.08;10.65;;;4.70;98.20;;;;;;5072958;28;20035;-54
2021/12/12 06:45:38;;;;;;;18.90;10.63;;;4.70;98.20;;;;;;5072768;28;20502;-54
2021/12/12 06:48:10;;;;;;;19.45;10.73;;;4.70;98.10;;;;;;5072692;28;20388;-58
2021/12/12 06:50:38;;;;;;;21.05;11.82;;;4.70;98.00;;;;;;5072778;28;20036;-53
2021/12/12 06:53:05;;;;;;;24.98;13.48;;;4.60;98.20;;;;;;5072635;28;20029;-54
2021/12/12 06:55:31;;;;;;;33.00;12.98;;;4.60;98.10;;;;;;5076782;28;20377;-57
2021/12/12 06:57:59;;;;;;;26.90;15.10;;;4.60;98.00;;;;;;5092838;28;20107;-58
2021/12/12 07:00:26;;;;;;;34.72;16.67;;;4.60;98.30;;;;;;5092838;28;20035;-57
2021/12/12 07:02:52;;;;;;;29.23;15.40;;;4.60;98.40;;;;;;5092759;28;20102;-54
2021/12/12 07:05:21;;;;;;;33.97;16.45;;;4.60;98.40;;;;;;5092654;28;20031;-58
2021/12/12 07:07:49;;;;;;;27.00;14.77;;;4.60;98.30;;;;;;5092775;28;20024;-57
2021/12/12 07:10:16;;;;;;;31.13;15.98;;;4.50;98.20;;;;;;5077423;28;20024;-53
2021/12/12 07:12:43;;;;;;;21.70;12.88;;;4.50;98.30;;;;;;5079767;28;20380;-54
2021/12/12 07:15:15;;;;;;;24.95;13.20;;;4.50;98.40;;;;;;5092799;28;20047;-56
2021/12/12 07:17:41;;;;;;;33.00;16.27;;;4.50;98.30;;;;;;5092461;28;20028;-56
2021/12/12 07:20:11;;;;;;;34.55;16.48;;;4.50;98.20;;;;;;5092445;28;20024;-57
2021/12/12 07:22:38;;;;;;;30.40;16.52;;;4.50;98.40;;;;;;5092434;28;20040;-56
2021/12/12 07:25:07;;;;;;;28.23;15.65;;;4.50;98.60;;;;;;5092533;28;20031;-56
2021/12/12 07:27:33;;;;;;;26.63;16.08;;;4.50;98.60;;;;;;5092574;28;20024;-57
2021/12/12 07:30:01;;;;;;;36.17;17.65;;;4.60;98.50;;;;;;5092157;28;20032;-55
2021/12/12 07:32:27;;;;;;;42.28;19.20;;;4.60;98.40;;;;;;5092380;28;20078;-58
2021/12/12 07:34:53;;;;;;;33.10;18.40;;;4.60;98.40;;;;;;5092512;28;20035;-55
2021/12/12 07:37:21;;;;;;;34.75;17.30;;;4.60;98.50;;;;;;5092552;28;20052;-54
2021/12/12 07:39:47;;;;;;;35.90;19.42;;;4.60;98.30;;;;;;5091608;28;20531;-57
2021/12/12 07:42:16;;;;;;;42.33;20.40;;;4.60;98.30;;;;;;5089307;28;20021;-57
2021/12/12 07:44:43;;;;;;;32.28;18.35;;;4.60;98.30;;;;;;5075611;28;20047;-54
2021/12/12 07:47:11;;;;;;;34.35;19.15;;;4.60;98.10;;;;;;5088922;28;20020;-53
2021/12/12 07:49:41;;;;;;;44.97;20.45;;;4.50;98.30;;;;;;5094612;28;20027;-58
2021/12/12 07:52:24;;;;;;;45.75;22.00;;;4.50;98.40;;;;;;5095889;28;20039;-56
2021/12/12 07:54:51;;;;;;;37.67;19.17;;;4.60;98.10;;;;;;5093522;28;20032;-54
2021/12/12 07:57:19;;;;;;;38.10;18.02;;;4.50;98.20;;;;;;5096018;28;20020;-57
2021/12/12 07:59:45;;;;;;;35.90;19.50;;;4.50;98.40;;;;;;5095836;28;20107;-55
2021/12/12 08:02:15;;;;;;;30.10;16.65;;;4.50;98.40;;;;;;5091434;28;20058;-56
2021/12/12 08:04:41;;;;;;;42.60;20.40;;;4.50;98.40;;;;;;5095361;28;20024;-54
2021/12/12 08:07:13;;;;;;;35.08;18.20;;;4.50;98.20;;;;;;5094993;28;20460;-58
2021/12/12 08:09:42;;;;;;;32.65;17.92;;;4.50;98.10;;;;;;5083571;28;20020;-55
2021/12/12 08:12:22;;;;;;;32.75;18.02;;;4.50;98.20;;;;;;5076882;28;20039;-57
2021/12/12 08:14:49;;;;;;;31.67;17.70;;;4.50;98.30;;;;;;5093565;28;20028;-58
2021/12/12 08:17:19;;;;;;;34.03;19.23;;;4.50;98.20;;;;;;5093161;28;20111;-57
2021/12/12 08:19:47;;;;;;;30.13;17.33;;;4.50;98.30;;;;;;5092498;28;20024;-55
2021/12/12 08:22:13;;;;;;;27.88;16.35;;;4.50;98.30;;;;;;5075205;28;20059;-53
2021/12/12 08:24:40;;;;;;;24.88;15.25;;;4.50;98.30;;;;;;5073052;28;20017;-56
2021/12/12 08:27:08;;;;;;;23.48;15.52;;;4.50;98.00;;;;;;5074675;28;20668;-57
2021/12/12 08:29:35;;;;;;;32.08;15.35;;;4.40;97.80;;;;;;5074981;28;20024;-55
2021/12/12 08:32:05;;;;;;;35.80;16.48;;;4.40;98.00;;;;;;5074466;28;20032;-58
2021/12/12 08:34:31;;;;;;;42.15;17.75;;;4.40;98.10;;;;;;5077710;28;20027;-56
2021/12/12 08:36:58;;;;;;;33.05;15.88;;;4.30;98.20;;;;;;5094199;28;20032;-56
2021/12/12 08:39:27;;;;;;;39.33;16.45;;;4.30;98.30;;;;;;5085157;28;20108;-58
2021/12/12 08:41:54;;;;;;;29.70;14.48;;;4.20;98.50;;;;;;5089326;28;20020;-56
2021/12/12 08:44:23;;;;;;;33.97;12.73;;;4.20;98.40;;;;;;5086648;28;20017;-58
2021/12/12 08:46:52;;;;;;;27.73;12.70;;;4.20;98.60;;;;;;5083789;28;20502;-58
2021/12/12 08:49:20;;;;;;;22.42;11.25;;;4.20;98.50;;;;;;5086757;28;20021;-57
2021/12/12 08:51:50;;;;;;;24.50;12.73;;;4.20;98.60;;;;;;5074270;28;20479;-55
2021/12/12 08:54:25;;;;;;;29.17;11.40;;;4.20;98.70;;;;;;5076995;28;20099;-57
2021/12/12 08:57:02;;;;;;;26.75;11.20;;;4.20;99.00;;;;;;5082529;28;20036;-55
2021/12/12 08:59:28;;;;;;;23.60;11.80;;;4.20;98.30;;;;;;5073921;28;20021;-58
2021/12/12 09:02:03;;;;;;;28.60;11.43;;;4.10;98.20;;;;;;5073964;28;20028;-56
2021/12/12 09:04:32;;;;;;;26.38;13.02;;;4.10;98.30;;;;;;5074060;28;20040;-58
2021/12/12 09:06:58;;;;;;;41.17;13.25;;;4.10;98.40;;;;;;5077659;28;20112;-55
2021/12/12 09:09:28;;;;;;;27.80;13.27;;;4.10;98.40;;;;;;5081974;28;20075;-57
2021/12/12 09:12:10;;;;;;;29.35;11.95;;;4.10;98.30;;;;;;5083212;28;20028;-57
2021/12/12 09:14:37;;;;;;;;;;;4.00;98.10;;;;;;5094793;28;20030;-55
2021/12/12 09:17:12;;;;;;;22.75;12.10;;;3.90;98.20;;;;;;5092288;28;19908;-53
2021/12/12 09:20:03;;;;;;;23.20;11.82;;;3.90;98.30;;;;;;5073810;28;20016;-56
2021/12/12 09:22:33;;;;;;;21.10;11.93;;;3.90;98.50;;;;;;5073544;28;20044;-58
2021/12/12 09:25:12;;;;;;;24.52;10.88;;;3.90;98.50;;;;;;5073884;28;20032;-56
2021/12/12 09:27:53;;;;;;;22.83;12.93;;;3.90;98.20;;;;;;5077100;28;20465;-56
2021/12/12 09:30:22;;;;;;;20.45;11.35;;;3.90;98.30;;;;;;5081047;28;20047;-57
2021/12/12 09:33:09;;;;;;;16.88;11.30;;;3.80;98.40;;;;;;5085484;28;20055;-56
2021/12/12 09:35:54;;;;;;;19.55;12.20;;;3.90;98.20;;;;;;5092933;28;20099;-57
2021/12/12 09:38:25;;;;;;;22.70;12.82;;;3.80;97.90;;;;;;5093670;28;20024;-56
2021/12/12 09:41:03;;;;;;;18.13;11.75;;;3.80;98.40;;;;;;5093475;28;20068;-57
2021/12/12 09:44:12;;;;;;;17.65;12.23;;;3.80;98.30;;;;;;5089495;28;20024;-57
2021/12/12 09:47:25;;;;;;;16.80;12.05;;;3.80;98.10;;;;;;5093931;28;20069;-58
2021/12/12 09:53:05;;;;;;;25.85;16.60;;;3.80;98.10;;;;;;5093531;28;20035;-55
2021/12/12 09:55:44;;;;;;;24.60;15.95;;;3.80;98.20;;;;;;5092735;28;20486;-58
2021/12/12 09:58:42;;;;;;;21.23;13.10;;;3.80;98.20;;;;;;5088131;28;20498;-55
2021/12/12 10:01:39;;;;;;;18.10;13.00;;;3.80;97.60;;;;;;5041152;28;20029;-58
2021/12/12 10:04:17;;;;;;;19.73;14.57;;;3.70;97.70;;;;;;5084443;28;20533;-55
2021/12/12 10:07:07;;;;;;;21.45;14.40;;;3.80;98.10;;;;;;5072752;28;20017;-58
2021/12/12 10:09:52;;;;;;;28.70;16.23;;;3.80;98.10;;;;;;5073141;28;20107;-56
2021/12/12 10:12:28;;;;;;;25.40;15.68;;;3.80;97.80;;;;;;5073053;28;20029;-56
2021/12/12 10:15:09;;;;;;;20.55;12.90;;;3.70;97.80;;;;;;5092341;28;20024;-58
2021/12/12 10:18:05;;;;;;;25.02;13.82;;;3.70;97.80;;;;;;5092641;28;20032;-55
2021/12/12 10:20:57;;;;;;;23.80;13.43;;;3.70;98.00;;;;;;5086481;28;20108;-57
2021/12/12 10:23:50;;;;;;;28.95;14.93;;;3.70;98.20;;;;;;5093216;28;20038;-57
2021/12/12 10:26:33;;;;;;;23.48;13.88;;;3.70;98.00;;;;;;5093412;28;20523;-56
2021/12/12 10:29:26;;;;;;;25.10;14.20;;;3.70;98.10;;;;;;5093148;28;20065;-53
2021/12/12 10:31:54;;;;;;;27.60;16.38;;;3.70;98.00;;;;;;5088622;28;20421;-56
2021/12/12 10:34:41;;;;;;;24.73;14.80;;;3.70;97.80;;;;;;5091116;28;20024;-56
2021/12/12 10:37:14;;;;;;;24.88;13.98;;;3.70;97.70;;;;;;5074514;28;20127;-58
2021/12/12 10:39:48;;;;;;;25.10;14.27;;;3.70;97.90;;;;;;5093238;28;20028;-57
2021/12/12 10:42:26;;;;;;;21.98;14.77;;;3.70;97.60;;;;;;5089571;28;20047;-56
2021/12/12 10:45:03;;;;;;;24.80;14.88;;;3.70;97.90;;;;;;5072797;28;20101;-55
2021/12/12 10:47:58;;;;;;;24.52;15.23;;;3.70;97.50;;;;;;5075558;28;20594;-55
2021/12/12 10:50:49;;;;;;;31.80;17.90;;;3.70;97.30;;;;;;5088933;28;20016;-54
2021/12/12 10:53:27;;;;;;;25.13;15.95;;;3.60;97.20;;;;;;5092934;28;20091;-56
2021/12/12 10:56:03;;;;;;;26.38;15.45;;;3.60;97.30;;;;;;5092085;28;20375;-55
2021/12/12 10:58:44;;;;;;;23.00;15.07;;;3.50;97.30;;;;;;5092737;28;20026;-58
2021/12/12 11:01:16;;;;;;;23.67;16.65;;;3.50;97.30;;;;;;5092698;28;20052;-54
2021/12/12 11:04:01;;;;;;;26.63;15.02;;;3.50;97.50;;;;;;5092718;28;20020;-54
2021/12/12 11:06:54;;;;;;;23.05;14.60;;;3.50;97.40;;;;;;5090716;28;20437;-55
2021/12/12 11:09:31;;;;;;;22.17;14.40;;;3.50;97.60;;;;;;5069394;28;20040;-57
2021/12/12 11:12:27;;;;;;;18.70;11.68;;;3.50;97.30;;;;;;5073437;28;20024;-56
2021/12/12 11:14:56;;;;;;;20.75;13.32;;;3.50;97.60;;;;;;5070465;28;20123;-57
2021/12/12 11:17:29;;;;;;;22.40;13.77;;;3.50;97.40;;;;;;5075131;28;20111;-56
2021/12/12 11:20:07;;;;;;;22.70;15.23;;;3.60;97.20;;;;;;5089805;28;20027;-56
2021/12/12 11:22:38;;;;;;;24.92;14.13;;;3.50;97.30;;;;;;5083098;28;20052;-56
2021/12/12 11:25:17;;;;;;;26.95;15.10;;;3.50;97.60;;;;;;5080632;28;20031;-56
2021/12/12 11:27:48;;;;;;;24.60;15.30;;;3.60;97.30;;;;;;5090731;28;20537;-56
2021/12/12 11:30:52;;;;;;;26.80;15.63;;;3.50;97.10;;;;;;5095546;28;20032;-57
2021/12/12 11:33:19;;;;;;;21.02;13.35;;;3.50;96.60;;;;;;5088970;28;20056;-56
2021/12/12 11:35:50;;;;;;;23.23;15.15;;;3.40;96.90;;;;;;5075762;28;20056;-58
2021/12/12 11:38:49;;;;;;;27.08;16.50;;;3.40;96.80;;;;;;5093521;28;20065;-55
2021/12/12 11:41:32;;;;;;;30.80;18.13;;;3.40;96.40;;;;;;5079662;28;20027;-56
2021/12/12 11:44:13;;;;;;;28.80;17.35;;;3.30;96.70;;;;;;5075567;28;20019;-53
2021/12/12 11:47:03;;;;;;;28.77;17.25;;;3.30;97.00;;;;;;5084895;28;20027;-58
2021/12/12 11:49:48;;;;;;;28.80;15.07;;;3.30;97.30;;;;;;5076364;28;20038;-53
2021/12/12 11:52:19;;;;;;;31.60;18.02;;;3.30;97.50;;;;;;5096008;28;20032;-53
2021/12/12 11:54:57;;;;;;;21.10;12.95;;;3.30;97.40;;;;;;5088706;28;20038;-56
2021/12/12 11:57:27;;;;;;;31.23;17.48;;;3.30;97.40;;;;;;5095484;28;20384;-57
2021/12/12 12:00:14;;;;;;;25.42;12.98;;;3.30;97.10;;;;;;5095525;28;20030;-58
2021/12/12 12:03:13;;;;;;;28.23;15.63;;;3.30;97.00;;;;;;5095596;28;20020;-56
2021/12/12 12:05:58;;;;;;;30.20;17.73;;;3.30;97.20;;;;;;5095008;28;20028;-53
2021/12/12 12:08:56;;;;;;;26.52;16.27;;;3.30;97.00;;;;;;5083166;28;20025;-57
2021/12/12 12:11:40;;;;;;;31.25;17.92;;;3.30;97.20;;;;;;5091098;28;20461;-56
2021/12/12 12:14:43;;;;;;;31.80;17.38;;;3.30;97.10;;;;;;5077217;28;20028;-56
2021/12/12 12:17:12;;;;;;;29.80;16.52;;;3.30;97.40;;;;;;5083982;28;20024;-57
2021/12/12 12:20:20;;;;;;;26.42;15.75;;;3.40;97.70;;;;;;5095553;28;20032;-56
2021/12/12 12:23:16;;;;;;;26.90;15.98;;;3.40;96.80;;;;;;5012982;28;20045;-56
2021/12/12 12:28:56;;;;;;;26.80;15.68;;;3.40;96.50;;;;;;5074304;28;20079;-56
2021/12/12 12:31:36;;;;;;;25.70;15.57;;;3.30;96.50;;;;;;5074905;28;20431;-56
2021/12/12 12:34:24;;;;;;;30.58;18.08;;;3.30;96.60;;;;;;5074828;28;20032;-53
2021/12/12 12:37:27;;;;;;;31.45;16.83;;;3.30;96.60;;;;;;5074825;28;20020;-55
2021/12/12 12:40:30;;;;;;;29.98;18.40;;;3.30;96.50;;;;;;5093289;28;20040;-55
2021/12/12 12:43:26;;;;;;;31.63;16.98;;;3.30;96.90;;;;;;5077874;28;20115;-53
2021/12/12 12:46:29;;;;;;;37.38;19.95;;;3.40;96.80;;;;;;5074903;28;20032;-55
2021/12/12 12:49:22;;;;;;;34.05;18.98;;;3.30;96.30;;;;;;5090471;28;20487;-58
2021/12/12 12:52:21;;;;;;;27.27;16.05;;;3.30;96.60;;;;;;5094778;28;20035;-54
2021/12/12 12:54:59;;;;;;;34.00;20.52;;;3.30;96.90;;;;;;5094985;28;20027;-57
2021/12/12 12:57:30;;;;;;;40.80;22.45;;;3.40;96.70;;;;;;5079978;28;20016;-55
2021/12/12 13:00:15;;;;;;;40.65;23.02;;;3.30;96.40;;;;;;5081114;28;20031;-57
2021/12/12 13:03:02;;;;;;;43.13;22.30;;;3.30;96.10;;;;;;5094609;28;20032;-53
2021/12/12 13:05:40;;;;;;;34.20;19.75;;;3.20;96.30;;;;;;5094488;28;20024;-55
2021/12/12 13:08:34;;;;;;;35.60;19.27;;;3.10;96.40;;;;;;5094676;28;20051;-53
2021/12/12 13:11:02;;;;;;;30.92;18.48;;;3.10;96.50;;;;;;5094495;28;20073;-53
2021/12/12 13:13:31;;;;;;;29.63;18.33;;;3.20;97.00;;;;;;5088100;28;20027;-56
2021/12/12 13:16:03;;;;;;;40.05;21.15;;;3.20;96.90;;;;;;5094541;28;20028;-57
2021/12/12 13:18:46;;;;;;;31.13;18.10;;;3.30;97.10;;;;;;5092779;28;20127;-57
2021/12/12 13:21:25;;;;;;;36.83;20.40;;;3.30;96.90;;;;;;5094014;28;20047;-53
2021/12/12 13:24:09;;;;;;;36.13;18.85;;;3.40;96.90;;;;;;5094214;28;20046;-53
2021/12/12 13:26:53;;;;;;;28.58;16.77;;;3.40;96.90;;;;;;5094149;28;20027;-54
2021/12/12 13:29:39;;;;;;;38.72;22.85;;;3.50;96.60;;;;;;5089064;28;20024;-53
2021/12/12 13:32:17;;;;;;;36.22;21.02;;;3.50;95.80;;;;;;5094256;28;20034;-57
2021/12/12 13:35:04;;;;;;;36.45;20.77;;;3.50;95.90;;;;;;5093204;28;20043;-54
2021/12/12 13:38:00;;;;;;;38.22;21.02;;;3.50;96.10;;;;;;5093789;28;20046;-57
2021/12/12 13:40:43;;;;;;;34.30;18.67;;;3.40;96.30;;;;;;5092360;28;20041;-57